Legend Of The Seas — C6SL5 — position and weather

sailwx.info

Track history (hours):
 
Tides and Currents Weather Stations Pressure Air Temp Water Temp Dewpoint Dewpoint Depression Visibility Wind Speed Wind Dir Waves Ship Positions

Legend Of The Seas

Operator: Royal Caribbean Cruises Ltd

Last reported at 2016-May-26 13:33 UTC. Time now 2016-May-26 14:24 UTC.
Position N 38°40' E 120°32'.

Type: Passenger vessel. MMSI: 311378000.

Date/timePositionNaut miles runAvg speedWind from/ knotsBaromVisibWave heightAir tempDewpointWater temp
2016-May-26 13:33N 38°40' E 120°32'1414.2
2016-May-26 12:33N 38°40' E 120°50'1514.9
2016-May-26 11:33N 38°33' E 121°07'3615.6
2016-May-26 09:16N 38°15' E 121°46'1216.3
2016-May-26 08:33N 38°08' E 121°59'1615.8
2016-May-26 07:32N 37°59' E 122°16'1615.2
2016-May-26 06:30N 37°53' E 122°34'4814.5
2016-May-26 03:12N 37°22' E 123°20'1016.1
2016-May-26 02:33N 37°12' E 123°26'1616.4
2016-May-26 01:33N 36°57' E 123°34'1615.5
2016-May-26 00:33N 36°44' E 123°43'  
2016-May-22 22:29N 37°37' E 122°54'1617.7
2016-May-22 21:33N 37°46' E 122°36'1918.2
2016-May-22 20:32N 37°56' E 122°16'1919.0
2016-May-22 19:33N 38°05' E 121°56'1918.7
2016-May-22 18:32N 38°14' E 121°34'1818.5
2016-May-22 17:33N 38°23' E 121°14'2218.2
2016-May-22 16:21N 38°33' E 120°49'1518.3
2016-May-22 15:33N 38°36' E 120°31'1818.3
2016-May-22 14:33N 38°37' E 120°07'1918.8
2016-May-22 13:33N 38°40' E 119°43'7819.2
2016-May-22 09:31N 38°54' E 118°06'1212.7
2016-May-22 08:33N 38°58' E 117°50'2 1.5
2016-May-22 07:33N 38°59' E 117°49'0 0.0
2016-May-22 06:27N 38°59' E 117°49'0 0.0
2016-May-22 05:33N 38°59' E 117°49'0 0.0
2016-May-22 04:21N 38°59' E 117°49'0 0.0
2016-May-22 02:09N 38°59' E 117°49'0 0.0
2016-May-22 01:33N 38°59' E 117°49'0 0.0
2016-May-22 00:33N 38°59' E 117°49'0 0.0
2016-May-21 23:31N 38°59' E 117°49'8 8.5
2016-May-21 22:32N 38°57' E 117°59'3114.3
2016-May-21 20:23N 38°50' E 118°38'10917.5
2016-May-21 14:10N 38°36' E 120°56'1218.5
2016-May-21 13:32N 38°31' E 121°10'6218.4
2016-May-21 10:08N 37°58' E 122°18'1119.2
2016-May-21 09:33N 37°53' E 122°30'1919.1
2016-May-21 08:33N 37°44' E 122°51'1919.1
2016-May-21 07:33N 37°34' E 123°12'1918.9
2016-May-21 06:33N 37°17' E 123°23'1818.5
2016-May-21 05:33N 37°00' E 123°33'1818.1
2016-May-21 04:33N 36°46' E 123°47'1716.8
2016-May-21 03:31N 36°29' E 123°52'  
Track history (hours):
 
Tides and Currents Weather Stations Pressure Air Temp Water Temp Dewpoint Dewpoint Depression Visibility Wind Speed Wind Dir Waves Ship Positions

Legend Of The Seas

Operator: Royal Caribbean Cruises Ltd

Last reported at 2016-May-26 13:33 UTC. Time now 2016-May-26 14:24 UTC.
Position N 38°40' E 120°32'.

Type: Passenger vessel. MMSI: 311378000.

Date/timePositionNaut miles runAvg speedWind from/ knotsBaromVisibWave heightAir tempDewpointWater temp
2016-May-26 13:33N 38°40' E 120°32'1414.2
2016-May-26 12:33N 38°40' E 120°50'1514.9
2016-May-26 11:33N 38°33' E 121°07'3615.6
2016-May-26 09:16N 38°15' E 121°46'1216.3
2016-May-26 08:33N 38°08' E 121°59'1615.8
2016-May-26 07:32N 37°59' E 122°16'1615.2
2016-May-26 06:30N 37°53' E 122°34'4814.5
2016-May-26 03:12N 37°22' E 123°20'1016.1
2016-May-26 02:33N 37°12' E 123°26'1616.4
2016-May-26 01:33N 36°57' E 123°34'1615.5
2016-May-26 00:33N 36°44' E 123°43'  
2016-May-22 22:29N 37°37' E 122°54'1617.7
2016-May-22 21:33N 37°46' E 122°36'1918.2
2016-May-22 20:32N 37°56' E 122°16'1919.0
2016-May-22 19:33N 38°05' E 121°56'1918.7
2016-May-22 18:32N 38°14' E 121°34'1818.5
2016-May-22 17:33N 38°23' E 121°14'2218.2
2016-May-22 16:21N 38°33' E 120°49'1518.3
2016-May-22 15:33N 38°36' E 120°31'1818.3
2016-May-22 14:33N 38°37' E 120°07'1918.8
2016-May-22 13:33N 38°40' E 119°43'7819.2
2016-May-22 09:31N 38°54' E 118°06'1212.7
2016-May-22 08:33N 38°58' E 117°50'2 1.5
2016-May-22 07:33N 38°59' E 117°49'0 0.0
2016-May-22 06:27N 38°59' E 117°49'0 0.0
2016-May-22 05:33N 38°59' E 117°49'0 0.0
2016-May-22 04:21N 38°59' E 117°49'0 0.0
2016-May-22 02:09N 38°59' E 117°49'0 0.0
2016-May-22 01:33N 38°59' E 117°49'0 0.0
2016-May-22 00:33N 38°59' E 117°49'0 0.0
2016-May-21 23:31N 38°59' E 117°49'8 8.5
2016-May-21 22:32N 38°57' E 117°59'3114.3
2016-May-21 20:23N 38°50' E 118°38'10917.5
2016-May-21 14:10N 38°36' E 120°56'1218.5
2016-May-21 13:32N 38°31' E 121°10'6218.4
2016-May-21 10:08N 37°58' E 122°18'1119.2
2016-May-21 09:33N 37°53' E 122°30'1919.1
2016-May-21 08:33N 37°44' E 122°51'1919.1
2016-May-21 07:33N 37°34' E 123°12'1918.9
2016-May-21 06:33N 37°17' E 123°23'1818.5
2016-May-21 05:33N 37°00' E 123°33'1818.1
2016-May-21 04:33N 36°46' E 123°47'1716.8
2016-May-21 03:31N 36°29' E 123°52'  

Dump ship's entire track history